createdAt,value
2018-03-07T00:02:00.341Z,33.60
2018-03-07T00:04:28.173Z,33.80
2018-03-07T00:06:55.982Z,34.93
2018-03-07T00:09:23.717Z,33.73
2018-03-07T00:11:51.503Z,34.50
2018-03-07T00:14:19.996Z,35.13
2018-03-07T00:16:47.698Z,34.07
2018-03-07T00:19:15.450Z,35.80
2018-03-07T00:21:43.189Z,34.73
2018-03-07T00:24:10.880Z,36.43
2018-03-07T00:26:38.643Z,37.20
2018-03-07T00:29:06.345Z,34.13
2018-03-07T00:31:34.193Z,34.93
2018-03-07T00:34:01.980Z,34.53
2018-03-07T00:36:29.656Z,34.57
2018-03-07T00:38:57.465Z,33.63
2018-03-07T00:41:25.230Z,38.27
2018-03-07T00:43:52.934Z,37.03
2018-03-07T00:46:20.960Z,38.13
2018-03-07T00:48:48.643Z,35.70
2018-03-07T00:51:16.388Z,36.30
2018-03-07T00:53:44.120Z,36.83
2018-03-07T00:56:11.858Z,35.50
2018-03-07T00:58:39.531Z,36.20
2018-03-07T01:01:08.132Z,35.67
2018-03-07T01:03:36.661Z,38.03
2018-03-07T01:06:04.360Z,36.63
2018-03-07T01:08:32.873Z,36.60
2018-03-07T01:11:00.668Z,40.60
2018-03-07T01:13:28.404Z,39.70
2018-03-07T01:15:56.153Z,37.13
2018-03-07T01:18:23.857Z,42.07
2018-03-07T01:20:51.673Z,43.07
2018-03-07T01:23:19.476Z,42.87
2018-03-07T01:25:47.307Z,38.03
2018-03-07T01:28:15.062Z,39.40
2018-03-07T01:30:42.795Z,43.53
2018-03-07T01:33:11.279Z,42.90
2018-03-07T01:35:38.997Z,42.47
2018-03-07T01:38:06.685Z,41.93
2018-03-07T01:40:34.346Z,49.43
2018-03-07T01:43:02.058Z,48.80
2018-03-07T01:45:29.764Z,50.53
2018-03-07T01:47:57.422Z,49.10
2018-03-07T01:50:25.092Z,47.37
2018-03-07T01:52:52.791Z,46.53
2018-03-07T01:55:20.502Z,47.73
2018-03-07T01:57:48.196Z,44.60
2018-03-07T02:00:15.842Z,50.43
2018-03-07T02:02:43.509Z,47.20
2018-03-07T02:05:11.245Z,50.10
2018-03-07T02:07:39.729Z,51.47
2018-03-07T02:12:40.338Z,54.40
2018-03-07T02:15:08.066Z,48.90
2018-03-07T02:17:35.800Z,47.70
2018-03-07T02:20:03.531Z,47.63
2018-03-07T02:22:31.196Z,48.77
2018-03-07T02:24:58.858Z,46.27
2018-03-07T02:27:26.505Z,43.53
2018-03-07T02:29:54.181Z,43.97
2018-03-07T02:32:22.671Z,46.33
2018-03-07T02:34:50.346Z,48.37
2018-03-07T02:37:18.032Z,44.00
2018-03-07T02:39:45.708Z,44.73
2018-03-07T02:42:13.382Z,45.63
2018-03-07T02:44:41.106Z,48.03
2018-03-07T02:47:08.812Z,48.23
2018-03-07T02:49:36.521Z,59.07
2018-03-07T02:52:04.158Z,47.73
2018-03-07T02:54:31.803Z,47.30
2018-03-07T02:56:59.484Z,52.77
2018-03-07T02:59:27.139Z,43.70
2018-03-07T03:01:54.796Z,58.27
2018-03-07T03:04:22.464Z,52.93
2018-03-07T03:06:50.108Z,54.53
2018-03-07T03:09:18.601Z,47.33
2018-03-07T03:11:47.055Z,42.90
2018-03-07T03:14:14.748Z,46.60
2018-03-07T03:16:42.441Z,54.77
2018-03-07T03:19:10.106Z,44.50
2018-03-07T03:21:37.893Z,61.80
2018-03-07T03:24:05.560Z,47.63
2018-03-07T03:26:33.297Z,40.10
2018-03-07T03:29:00.986Z,67.77
2018-03-07T03:31:28.626Z,44.57
2018-03-07T03:33:57.072Z,59.47
2018-03-07T03:36:24.737Z,62.53
2018-03-07T03:38:52.397Z,60.70
2018-03-07T03:41:20.120Z,61.67
2018-03-07T03:43:47.800Z,63.37
2018-03-07T03:46:15.469Z,49.97
2018-03-07T03:48:43.142Z,45.70
2018-03-07T03:51:10.813Z,68.60
2018-03-07T03:53:38.467Z,41.83
2018-03-07T03:56:06.133Z,60.33
2018-03-07T03:58:33.851Z,61.73
2018-03-07T04:01:02.335Z,50.77
2018-03-07T04:03:30.009Z,50.30
2018-03-07T04:05:57.657Z,42.47
2018-03-07T04:08:25.313Z,46.97
2018-03-07T04:13:25.890Z,52.20
2018-03-07T04:15:53.568Z,54.27
2018-03-07T04:18:21.299Z,53.33
2018-03-07T04:20:49.019Z,42.03
2018-03-07T04:23:16.711Z,53.60
2018-03-07T04:25:44.436Z,61.83
2018-03-07T04:28:12.202Z,58.77
2018-03-07T04:30:39.944Z,69.33
2018-03-07T04:33:07.696Z,56.47
2018-03-07T04:35:35.411Z,52.30
2018-03-07T04:38:03.147Z,52.10
2018-03-07T04:40:30.842Z,60.97
2018-03-07T04:42:58.551Z,42.90
2018-03-07T04:45:26.314Z,50.40
2018-03-07T04:47:54.836Z,53.30
2018-03-07T04:50:22.531Z,48.27
2018-03-07T04:52:50.319Z,49.20
2018-03-07T04:55:18.023Z,44.97
2018-03-07T04:57:45.751Z,44.40
2018-03-07T05:00:13.497Z,42.33
2018-03-07T05:02:41.322Z,57.70
2018-03-07T05:05:09.045Z,48.37
2018-03-07T05:07:36.791Z,49.03
2018-03-07T05:10:04.606Z,48.93
2018-03-07T05:12:32.326Z,46.37
2018-03-07T05:15:00.805Z,44.63
2018-03-07T05:17:28.577Z,52.10
2018-03-07T05:19:56.278Z,47.73
2018-03-07T05:22:24.005Z,43.17
2018-03-07T05:24:51.726Z,49.57
2018-03-07T05:27:19.409Z,52.63
2018-03-07T05:29:47.132Z,46.63
2018-03-07T05:32:14.843Z,43.00
2018-03-07T05:34:42.628Z,43.13
2018-03-07T05:37:10.306Z,45.33
2018-03-07T05:39:38.093Z,50.87
2018-03-07T05:42:06.652Z,44.67
2018-03-07T05:44:35.188Z,51.60
2018-03-07T05:47:02.909Z,49.50
2018-03-07T05:49:31.542Z,46.63
2018-03-07T05:51:59.610Z,48.47
2018-03-07T05:54:27.331Z,45.17
2018-03-07T05:56:55.058Z,51.83
2018-03-07T05:59:24.296Z,52.70
2018-03-07T06:01:52.113Z,46.97
2018-03-07T06:04:19.936Z,53.00
2018-03-07T06:06:47.751Z,50.17
2018-03-07T06:09:15.491Z,49.60
2018-03-07T06:11:43.246Z,43.50
2018-03-07T06:14:11.006Z,48.53
2018-03-07T06:16:38.770Z,45.23
2018-03-07T06:19:06.562Z,49.40
2018-03-07T06:21:34.362Z,42.80
2018-03-07T06:24:02.944Z,49.33
2018-03-07T06:26:31.494Z,50.17
2018-03-07T06:28:59.262Z,48.60
2018-03-07T06:31:27.094Z,48.90
2018-03-07T06:33:54.785Z,47.00
2018-03-07T06:36:22.588Z,52.17
2018-03-07T06:38:50.313Z,49.10
2018-03-07T06:41:18.149Z,51.97
2018-03-07T06:43:46.702Z,44.33
2018-03-07T06:46:14.418Z,49.67
2018-03-07T06:48:42.267Z,54.90
2018-03-07T06:51:10.356Z,55.80
2018-03-07T06:53:38.128Z,50.87
2018-03-07T06:56:05.878Z,51.90
2018-03-07T06:58:33.666Z,55.27
2018-03-07T07:01:01.488Z,55.17
2018-03-07T07:03:29.232Z,50.33
2018-03-07T07:05:57.589Z,49.83
2018-03-07T07:08:26.080Z,49.20
2018-03-07T07:10:53.918Z,54.30
2018-03-07T07:13:22.124Z,57.80
2018-03-07T07:15:49.949Z,59.27
2018-03-07T07:18:17.738Z,59.03
2018-03-07T07:20:46.331Z,58.10
2018-03-07T07:23:14.843Z,54.53
2018-03-07T07:25:42.674Z,60.67
2018-03-07T07:28:11.269Z,56.83
2018-03-07T07:30:38.988Z,60.53
2018-03-07T07:33:06.756Z,57.23
2018-03-07T07:35:34.521Z,76.17
2018-03-07T07:38:02.441Z,92.83
2018-03-07T07:40:30.205Z,80.03
2018-03-07T07:42:57.927Z,116.17
2018-03-07T07:45:25.668Z,108.13
2018-03-07T07:47:54.368Z,87.13
2018-03-07T07:50:28.584Z,65.33
2018-03-07T07:52:58.273Z,62.93
2018-03-07T07:55:27.665Z,71.00
2018-03-07T07:57:58.868Z,60.90
2018-03-07T08:00:27.892Z,56.03
2018-03-07T08:02:57.326Z,74.30
2018-03-07T08:05:25.290Z,64.43
2018-03-07T08:07:53.019Z,73.50
2018-03-07T08:10:20.781Z,63.53
2018-03-07T08:12:48.496Z,63.87
2018-03-07T08:15:16.403Z,56.53
2018-03-07T08:17:44.910Z,61.60
2018-03-07T08:20:13.879Z,59.90
2018-03-07T08:22:43.546Z,54.53
2018-03-07T08:25:12.602Z,60.67
2018-03-07T08:27:41.521Z,54.97
2018-03-07T08:30:10.626Z,58.43
2018-03-07T08:32:40.266Z,62.17
2018-03-07T08:35:10.399Z,58.33
2018-03-07T08:37:39.430Z,57.50
2018-03-07T08:40:10.584Z,55.47
2018-03-07T08:42:39.975Z,56.57
2018-03-07T08:45:07.733Z,58.10
2018-03-07T08:47:35.680Z,49.67
2018-03-07T08:50:03.639Z,54.13
2018-03-07T08:52:31.449Z,54.23
2018-03-07T08:54:59.290Z,51.23
2018-03-07T08:57:27.142Z,49.33
2018-03-07T08:59:57.822Z,50.57
2018-03-07T09:02:25.667Z,53.53
2018-03-07T09:04:53.544Z,50.50
2018-03-07T09:07:21.336Z,44.20
2018-03-07T09:09:49.100Z,42.50
2018-03-07T09:12:16.869Z,42.93
2018-03-07T09:14:44.708Z,43.50
2018-03-07T09:17:12.466Z,46.43
2018-03-07T09:19:42.181Z,38.90
2018-03-07T09:22:17.458Z,43.37
2018-03-07T09:24:45.274Z,45.23
2018-03-07T09:27:14.151Z,46.30
2018-03-07T09:29:41.985Z,45.97
2018-03-07T09:32:10.532Z,45.53
2018-03-07T09:34:43.642Z,45.63
2018-03-07T09:37:12.630Z,46.17
2018-03-07T09:39:40.377Z,49.17
2018-03-07T09:42:08.094Z,47.83
2018-03-07T09:44:35.919Z,47.97
2018-03-07T09:47:04.033Z,38.37
2018-03-07T09:49:33.042Z,36.37
2018-03-07T09:54:53.851Z,33.27
2018-03-07T09:57:28.025Z,29.43
2018-03-07T09:59:57.331Z,31.60
2018-03-07T10:05:27.378Z,29.17
2018-03-07T10:08:48.856Z,28.63
2018-03-07T10:11:17.124Z,27.70
2018-03-07T10:13:51.731Z,27.73
2018-03-07T10:18:57.870Z,26.03
2018-03-07T10:21:25.807Z,25.63
2018-03-07T10:26:37.039Z,25.27
2018-03-07T10:29:06.662Z,24.67
2018-03-07T10:31:48.571Z,23.27
2018-03-07T10:36:59.354Z,24.07
2018-03-07T10:39:29.063Z,22.50
2018-03-07T10:41:58.141Z,21.00
2018-03-07T10:44:26.964Z,19.93
2018-03-07T10:46:54.711Z,17.40
2018-03-07T10:49:23.750Z,15.20
2018-03-07T10:51:51.477Z,15.97
2018-03-07T10:56:57.757Z,16.00
2018-03-07T10:59:25.549Z,14.37
2018-03-07T11:01:53.515Z,14.70
2018-03-07T11:04:23.643Z,12.90
2018-03-07T11:06:55.694Z,13.17
2018-03-07T11:09:23.492Z,13.10
2018-03-07T11:11:51.324Z,14.60
2018-03-07T11:14:19.073Z,13.00
2018-03-07T11:16:47.229Z,12.97
2018-03-07T11:19:15.774Z,10.03
2018-03-07T11:21:43.773Z,9.73
2018-03-07T11:24:11.576Z,9.00
2018-03-07T11:26:41.198Z,9.83
2018-03-07T11:29:13.437Z,9.70
2018-03-07T11:31:41.203Z,9.40
2018-03-07T11:34:10.102Z,9.90
2018-03-07T11:36:38.284Z,10.13
2018-03-07T11:39:06.151Z,10.37
2018-03-07T11:41:34.222Z,9.93
2018-03-07T11:44:03.665Z,11.00
2018-03-07T11:46:32.458Z,10.67
2018-03-07T11:49:01.500Z,10.90
2018-03-07T12:00:06.639Z,10.30
2018-03-07T12:02:47.128Z,10.23
2018-03-07T12:08:27.103Z,9.20
2018-03-07T12:11:29.898Z,9.50
2018-03-07T12:14:00.397Z,8.10
2018-03-07T12:16:29.475Z,7.83
2018-03-07T12:18:57.504Z,8.57
2018-03-07T12:21:25.304Z,8.40
2018-03-07T12:23:58.425Z,8.00
2018-03-07T12:26:27.503Z,8.33
2018-03-07T12:28:55.461Z,7.33
2018-03-07T12:31:24.070Z,8.10
2018-03-07T12:33:51.867Z,7.37
2018-03-07T12:36:20.447Z,8.30
2018-03-07T12:38:48.179Z,7.40
2018-03-07T12:41:15.912Z,9.10
2018-03-07T12:43:43.703Z,8.17
2018-03-07T12:46:11.673Z,8.13
2018-03-07T12:48:52.475Z,7.97
2018-03-07T12:51:20.176Z,7.10
2018-03-07T12:53:48.029Z,6.33
2018-03-07T12:56:20.852Z,6.63
2018-03-07T12:58:52.867Z,7.70
2018-03-07T13:01:20.594Z,7.13
2018-03-07T13:03:49.488Z,7.17
2018-03-07T13:06:22.275Z,6.67
2018-03-07T13:08:50.120Z,6.17
2018-03-07T13:11:18.020Z,4.27
2018-03-07T13:13:45.945Z,4.30
2018-03-07T13:16:14.361Z,4.33
2018-03-07T13:18:42.407Z,4.60
2018-03-07T13:21:17.360Z,4.10
2018-03-07T13:23:46.486Z,3.70
2018-03-07T13:26:15.193Z,4.23
2018-03-07T13:28:42.954Z,3.80
2018-03-07T13:31:11.100Z,3.67
2018-03-07T13:33:46.056Z,4.23
2018-03-07T13:36:15.911Z,4.97
2018-03-07T13:38:45.938Z,4.83
2018-03-07T13:41:14.552Z,6.27
2018-03-07T13:43:43.992Z,6.90
2018-03-07T13:46:16.453Z,6.43
2018-03-07T13:48:46.544Z,7.70
2018-03-07T13:51:15.049Z,6.47
2018-03-07T13:53:42.824Z,7.03
2018-03-07T13:56:10.556Z,6.53
2018-03-07T13:58:40.495Z,6.87
2018-03-07T14:01:08.439Z,7.30
2018-03-07T14:03:36.262Z,7.23
2018-03-07T14:06:05.906Z,7.63
2018-03-07T14:08:38.623Z,7.77
2018-03-07T14:11:07.752Z,6.70
2018-03-07T14:13:35.662Z,6.67
2018-03-07T14:18:44.833Z,7.30
2018-03-07T14:21:19.456Z,7.43
2018-03-07T14:23:49.752Z,7.63
2018-03-07T14:26:17.749Z,7.13
2018-03-07T14:28:45.674Z,7.13
2018-03-07T14:34:16.096Z,6.93
2018-03-07T14:36:44.483Z,6.00
2018-03-07T14:39:12.103Z,6.13
2018-03-07T14:41:40.536Z,6.27
2018-03-07T14:44:08.176Z,6.80
2018-03-07T14:46:36.564Z,6.77
2018-03-07T14:49:04.956Z,7.07
2018-03-07T14:51:33.384Z,6.80
2018-03-07T14:54:15.018Z,7.40
2018-03-07T14:56:42.649Z,7.00
2018-03-07T14:59:10.260Z,7.10
2018-03-07T15:01:38.653Z,7.77
2018-03-07T15:04:14.437Z,7.67
2018-03-07T15:06:42.064Z,6.90
2018-03-07T15:09:09.692Z,7.10
2018-03-07T15:11:37.312Z,7.67
2018-03-07T15:14:05.212Z,7.90
2018-03-07T15:16:32.832Z,6.73
2018-03-07T15:19:00.452Z,7.60
2018-03-07T15:21:28.109Z,7.10
2018-03-07T15:23:55.729Z,6.37
2018-03-07T15:26:24.119Z,6.53
2018-03-07T15:28:52.496Z,6.73
2018-03-07T15:31:21.873Z,6.50
2018-03-07T15:33:49.484Z,6.70
2018-03-07T15:36:17.108Z,7.37
2018-03-07T15:38:44.723Z,7.07
2018-03-07T15:41:12.341Z,6.87
2018-03-07T15:43:39.973Z,6.60
2018-03-07T15:46:07.609Z,6.40
2018-03-07T15:48:36.149Z,6.20
2018-03-07T15:51:05.274Z,6.07
2018-03-07T15:53:33.350Z,6.17
2018-03-07T15:56:01.781Z,6.20
2018-03-07T15:58:29.391Z,5.33
2018-03-07T16:00:57.002Z,5.77
2018-03-07T16:03:24.612Z,5.60
2018-03-07T16:05:52.223Z,4.97
2018-03-07T16:08:20.129Z,5.07
2018-03-07T16:10:47.757Z,5.10
2018-03-07T16:13:15.366Z,5.30
2018-03-07T16:15:42.975Z,5.00
2018-03-07T16:18:10.967Z,5.07
2018-03-07T16:20:38.588Z,5.20
2018-03-07T16:23:06.206Z,4.80
2018-03-07T16:25:33.811Z,4.67
2018-03-07T16:28:01.427Z,4.80
2018-03-07T16:30:29.051Z,4.00
2018-03-07T16:32:58.184Z,4.67
2018-03-07T16:35:25.797Z,4.40
2018-03-07T16:37:53.430Z,5.10
2018-03-07T16:40:21.046Z,5.20
2018-03-07T16:42:48.829Z,5.10
2018-03-07T16:45:16.429Z,4.97
2018-03-07T16:47:44.076Z,4.27
2018-03-07T16:50:12.457Z,4.90
2018-03-07T16:52:41.228Z,5.63
2018-03-07T16:55:08.849Z,5.20
2018-03-07T16:57:36.457Z,5.23
2018-03-07T17:00:04.097Z,5.37
2018-03-07T17:02:31.712Z,4.83
2018-03-07T17:05:00.097Z,4.90
2018-03-07T17:07:28.546Z,4.23
2018-03-07T17:09:56.152Z,4.30
2018-03-07T17:12:23.770Z,4.90
2018-03-07T17:14:52.977Z,4.27
2018-03-07T17:17:20.588Z,4.10
2018-03-07T17:19:48.217Z,4.47
2018-03-07T17:22:15.845Z,3.90
2018-03-07T17:24:43.467Z,3.90
2018-03-07T17:27:11.076Z,4.17
2018-03-07T17:29:38.684Z,4.27
2018-03-07T17:32:06.314Z,3.63
2018-03-07T17:34:33.992Z,4.43
2018-03-07T17:37:02.334Z,3.80
2018-03-07T17:39:29.953Z,3.87
2018-03-07T17:41:57.561Z,3.90
2018-03-07T17:44:25.173Z,4.40
2018-03-07T17:46:52.806Z,3.77
2018-03-07T17:49:20.409Z,3.50
2018-03-07T17:51:48.056Z,3.10
2018-03-07T17:54:15.650Z,3.60
2018-03-07T17:56:43.253Z,3.33
2018-03-07T17:59:11.661Z,4.13
2018-03-07T18:01:39.278Z,3.73
2018-03-07T18:04:06.899Z,3.57
2018-03-07T18:06:34.515Z,3.57
2018-03-07T18:09:02.941Z,3.63
2018-03-07T18:11:30.500Z,3.17
2018-03-07T18:13:58.122Z,3.83
2018-03-07T18:16:25.761Z,3.87
2018-03-07T18:18:53.379Z,3.53
2018-03-07T18:21:21.765Z,3.90
2018-03-07T18:23:49.374Z,4.03
2018-03-07T18:26:17.004Z,4.10
2018-03-07T18:28:44.615Z,3.57
2018-03-07T18:31:12.237Z,3.17
2018-03-07T18:33:39.858Z,3.37
2018-03-07T18:36:07.473Z,3.30
2018-03-07T18:38:35.083Z,3.50
2018-03-07T18:41:02.704Z,3.13
2018-03-07T18:43:30.329Z,3.00
2018-03-07T18:45:57.941Z,3.03
2018-03-07T18:48:25.564Z,3.20
2018-03-07T18:50:53.195Z,3.50
2018-03-07T18:53:20.800Z,3.00
2018-03-07T18:55:48.416Z,3.43
2018-03-07T18:58:16.032Z,3.70
2018-03-07T19:00:44.405Z,3.40
2018-03-07T19:03:12.789Z,4.27
2018-03-07T19:05:40.408Z,5.00
2018-03-07T19:08:08.028Z,5.63
2018-03-07T19:10:35.643Z,5.40
2018-03-07T19:13:03.263Z,5.30
2018-03-07T19:15:31.645Z,6.40
2018-03-07T19:18:00.026Z,7.00
2018-03-07T19:20:28.420Z,7.10
2018-03-07T19:22:56.028Z,7.67
2018-03-07T19:25:23.641Z,7.77
2018-03-07T19:27:52.088Z,6.37
2018-03-07T19:30:19.706Z,7.43
2018-03-07T19:32:48.100Z,8.27
2018-03-07T19:35:15.724Z,8.00
2018-03-07T19:37:43.341Z,7.87
2018-03-07T19:40:10.960Z,7.43
2018-03-07T19:42:38.576Z,8.97
2018-03-07T19:45:06.198Z,8.03
2018-03-07T19:47:33.833Z,7.77
2018-03-07T19:50:01.438Z,8.20
2018-03-07T19:52:29.834Z,8.77
2018-03-07T19:54:57.460Z,7.80
2018-03-07T19:57:25.082Z,7.37
2018-03-07T19:59:52.688Z,7.90
2018-03-07T20:02:20.313Z,8.20
2018-03-07T20:04:47.920Z,7.80
2018-03-07T20:07:15.549Z,6.93
2018-03-07T20:09:43.169Z,7.07
2018-03-07T20:12:10.856Z,6.10
2018-03-07T20:14:38.409Z,6.27
2018-03-07T20:17:06.013Z,6.20
2018-03-07T20:19:33.633Z,6.50
2018-03-07T20:22:01.261Z,6.73
2018-03-07T20:24:28.879Z,7.03
2018-03-07T20:26:57.270Z,7.60
2018-03-07T20:29:24.882Z,6.90
2018-03-07T20:31:52.524Z,8.67
2018-03-07T20:34:20.159Z,7.87
2018-03-07T20:36:48.556Z,8.97
2018-03-07T20:39:16.179Z,10.00
2018-03-07T20:41:44.160Z,10.17
2018-03-07T20:44:11.823Z,10.00
2018-03-07T20:46:39.411Z,10.93
2018-03-07T20:49:07.031Z,12.03
2018-03-07T20:51:35.057Z,10.63
2018-03-07T20:54:03.455Z,11.60
2018-03-07T20:56:31.085Z,11.07
2018-03-07T20:58:58.719Z,11.60
2018-03-07T21:01:27.101Z,10.57
2018-03-07T21:03:54.753Z,11.33
2018-03-07T21:06:22.386Z,12.17
2018-03-07T21:08:50.780Z,12.00
2018-03-07T21:11:18.427Z,14.00
2018-03-07T21:13:46.038Z,13.20
2018-03-07T21:16:13.677Z,13.87
2018-03-07T21:18:41.300Z,14.17
2018-03-07T21:21:08.944Z,13.07
2018-03-07T21:23:36.582Z,14.13
2018-03-07T21:26:04.195Z,15.73
2018-03-07T21:28:31.820Z,15.83
2018-03-07T21:30:59.440Z,15.87
2018-03-07T21:33:27.068Z,16.17
2018-03-07T21:35:54.683Z,16.37
2018-03-07T21:38:22.321Z,16.73
2018-03-07T21:40:49.940Z,17.50
2018-03-07T21:43:17.552Z,17.10
2018-03-07T21:45:45.177Z,19.27
2018-03-07T21:48:12.816Z,19.23
2018-03-07T21:50:41.238Z,19.20
2018-03-07T21:53:08.866Z,17.90
2018-03-07T21:55:37.273Z,20.20
2018-03-07T21:58:04.893Z,20.13
2018-03-07T22:00:32.796Z,20.07
2018-03-07T22:03:01.184Z,20.30
2018-03-07T22:05:29.568Z,23.23
2018-03-07T22:07:57.216Z,22.90
2018-03-07T22:10:33.448Z,23.17
2018-03-07T22:13:01.364Z,22.30
2018-03-07T22:15:28.983Z,21.37
2018-03-07T22:17:56.617Z,19.67
2018-03-07T22:20:24.229Z,19.43
2018-03-07T22:22:51.851Z,17.90
2018-03-07T22:25:19.781Z,18.20
2018-03-07T22:27:47.408Z,18.57
2018-03-07T22:30:15.039Z,17.93
2018-03-07T22:32:42.660Z,19.50
2018-03-07T22:35:10.284Z,19.17
2018-03-07T22:37:37.917Z,18.63
2018-03-07T22:40:06.495Z,18.57
2018-03-07T22:42:34.129Z,19.87
2018-03-07T22:45:01.764Z,16.60
2018-03-07T22:47:29.377Z,18.67
2018-03-07T22:49:57.005Z,19.33
2018-03-07T22:52:25.070Z,18.63
2018-03-07T22:54:53.464Z,18.17
2018-03-07T22:57:21.088Z,18.80
2018-03-07T23:02:23.210Z,21.03
2018-03-07T23:04:51.109Z,21.90
2018-03-07T23:07:18.707Z,22.57
2018-03-07T23:09:46.330Z,23.47
2018-03-07T23:12:13.946Z,22.23
2018-03-07T23:14:41.578Z,23.00
2018-03-07T23:17:09.321Z,21.07
2018-03-07T23:19:36.940Z,22.13
2018-03-07T23:22:04.580Z,24.07
2018-03-07T23:24:32.193Z,24.83
2018-03-07T23:27:00.666Z,25.83
2018-03-07T23:29:28.312Z,25.60
2018-03-07T23:31:55.932Z,25.23
2018-03-07T23:34:23.554Z,26.77
2018-03-07T23:36:51.468Z,28.10
2018-03-07T23:39:19.100Z,28.23
2018-03-07T23:41:46.725Z,26.37
2018-03-07T23:44:14.364Z,30.60
2018-03-07T23:46:41.972Z,29.07
2018-03-07T23:49:09.597Z,32.00
2018-03-07T23:51:37.220Z,32.70
2018-03-07T23:54:04.841Z,28.43
2018-03-07T23:56:32.461Z,30.60
2018-03-07T23:59:00.102Z,26.63
